Airport View

Enter AWOS ICAO identifier for current METAR.

ex. KFNL

KC35 121050Z AUTO 30004KT 10SM CLR M15/M19 A3049 RMK AO2 T11511192 PWINO

12 Nov 2019 10:52

Frequency: 118.95

Phone: 608-768-0023

Other Area AWOS: KDLL - K82C - KLNR - KVOK

TAF KVOK 120900Z 1209/1315 30009KT 9999 FEW035 QNH3044INS BECMG 1216/1217 26006KT 9999 SKC QNH3025INS BECMG 1302/1303 19010G15KT 9999 BKN120 QNH3010INS BECMG 1305/1306 18015G20KT 9999 BKN020 620208 QNH2997INS TXM08/1220Z TNM17/1212Z